createdAt,value
2019-02-16T00:00:18.782Z,37.70
2019-02-16T00:01:18.769Z,43.40
2019-02-16T00:02:18.745Z,39.30
2019-02-16T00:03:18.742Z,40.60
2019-02-16T00:04:18.759Z,39.70
2019-02-16T00:05:18.709Z,43.60
2019-02-16T00:06:18.701Z,38.80
2019-02-16T00:07:18.690Z,40.70
2019-02-16T00:08:18.679Z,40.30
2019-02-16T00:09:18.676Z,42.40
2019-02-16T00:10:18.690Z,39.90
2019-02-16T00:11:18.646Z,44.80
2019-02-16T00:12:18.632Z,43.30
2019-02-16T00:13:18.629Z,43.90
2019-02-16T00:14:18.618Z,42.80
2019-02-16T00:15:18.626Z,40.60
2019-02-16T00:16:18.590Z,40.30
2019-02-16T00:17:18.576Z,41.60
2019-02-16T00:18:18.566Z,40.10
2019-02-16T00:19:18.557Z,42.50
2019-02-16T00:20:18.566Z,40.70
2019-02-16T00:21:18.532Z,36.80
2019-02-16T00:22:18.535Z,43.50
2019-02-16T00:23:18.511Z,40.70
2019-02-16T00:24:18.512Z,43.60
2019-02-16T00:25:18.514Z,45.40
2019-02-16T00:26:18.482Z,43.20
2019-02-16T00:27:18.470Z,44.50
2019-02-16T00:28:18.454Z,41.50
2019-02-16T00:29:18.439Z,45.20
2019-02-16T00:30:18.454Z,43.70
2019-02-16T00:31:18.444Z,43.70
2019-02-16T00:32:18.422Z,44.60
2019-02-16T00:33:18.398Z,46.90
2019-02-16T00:34:18.388Z,54.20
2019-02-16T00:35:18.381Z,51.20
2019-02-16T00:36:18.390Z,49.90
2019-02-16T00:37:18.355Z,48.50
2019-02-16T00:38:18.344Z,53.70
2019-02-16T00:39:18.348Z,47.20
2019-02-16T00:40:18.336Z,46.60
2019-02-16T00:41:18.320Z,49.20
2019-02-16T00:42:18.300Z,48.00
2019-02-16T00:43:18.293Z,45.50
2019-02-16T00:44:18.288Z,47.30
2019-02-16T00:45:18.286Z,54.30
2019-02-16T00:46:18.254Z,49.10
2019-02-16T00:47:18.266Z,50.80
2019-02-16T00:48:18.240Z,49.80
2019-02-16T00:49:18.222Z,52.30
2019-02-16T00:50:18.220Z,51.60
2019-02-16T00:51:18.217Z,50.60
2019-02-16T00:52:18.207Z,53.10
2019-02-16T00:53:18.177Z,49.90
2019-02-16T00:54:18.165Z,51.80
2019-02-16T00:55:18.157Z,51.80
2019-02-16T00:56:18.167Z,51.50
2019-02-16T00:57:18.133Z,53.60
2019-02-16T00:58:18.127Z,54.10
2019-02-16T00:59:18.108Z,55.10
2019-02-16T01:00:18.103Z,53.30
2019-02-16T01:01:18.110Z,55.40
2019-02-16T01:02:18.074Z,52.90
2019-02-16T01:03:18.064Z,55.50
2019-02-16T01:04:18.052Z,51.40
2019-02-16T01:05:18.042Z,50.40
2019-02-16T01:06:18.044Z,52.40
2019-02-16T01:07:18.022Z,55.70
2019-02-16T01:08:18.006Z,52.10
2019-02-16T01:09:18.000Z,55.60
2019-02-16T01:10:17.988Z,56.80
2019-02-16T01:11:17.999Z,53.80
2019-02-16T01:12:17.974Z,56.90
2019-02-16T01:13:17.956Z,53.50
2019-02-16T01:14:17.946Z,55.50
2019-02-16T01:15:17.934Z,50.50
2019-02-16T01:16:17.946Z,55.30
2019-02-16T01:17:17.912Z,48.20
2019-02-16T01:18:17.903Z,55.50
2019-02-16T01:19:17.892Z,52.80
2019-02-16T01:20:17.871Z,51.40
2019-02-16T01:21:22.736Z,49.60
2019-02-16T01:22:18.855Z,50.40
2019-02-16T01:23:17.849Z,45.60
2019-02-16T01:24:17.831Z,46.70
2019-02-16T01:25:17.816Z,41.40
2019-02-16T01:26:17.820Z,46.30
2019-02-16T01:27:17.797Z,41.80
2019-02-16T01:28:17.786Z,41.00
2019-02-16T01:29:17.777Z,46.40
2019-02-16T01:30:17.768Z,41.90
2019-02-16T01:31:17.782Z,40.60
2019-02-16T01:32:17.747Z,41.80
2019-02-16T01:33:17.733Z,38.40
2019-02-16T01:34:17.720Z,36.90
2019-02-16T01:35:17.712Z,44.00
2019-02-16T01:36:17.733Z,35.70
2019-02-16T01:37:17.688Z,38.30
2019-02-16T01:38:17.672Z,36.60
2019-02-16T01:39:17.667Z,36.90
2019-02-16T01:40:17.657Z,37.60
2019-02-16T01:41:17.652Z,37.90
2019-02-16T01:42:17.656Z,38.20
2019-02-16T01:43:17.622Z,37.00
2019-02-16T01:44:17.609Z,40.20
2019-02-16T01:45:17.598Z,36.90
2019-02-16T01:46:17.587Z,36.20
2019-02-16T01:47:17.599Z,37.50
2019-02-16T01:48:17.563Z,31.60
2019-02-16T01:49:17.556Z,36.40
2019-02-16T01:50:17.543Z,35.50
2019-02-16T01:51:17.526Z,34.00
2019-02-16T01:52:17.534Z,32.10
2019-02-16T01:53:17.509Z,33.20
2019-02-16T01:54:17.495Z,32.40
2019-02-16T01:55:17.491Z,32.30
2019-02-16T01:56:17.477Z,33.50
2019-02-16T01:57:17.485Z,35.40
2019-02-16T01:58:17.453Z,32.70
2019-02-16T01:59:17.439Z,33.50
2019-02-16T02:00:17.426Z,30.10
2019-02-16T02:01:17.428Z,33.40
2019-02-16T02:02:17.421Z,32.50
2019-02-16T02:03:17.391Z,32.50
2019-02-16T02:04:17.393Z,31.10
2019-02-16T02:05:17.368Z,31.40
2019-02-16T02:06:17.361Z,28.40
2019-02-16T02:07:17.429Z,29.70
2019-02-16T02:08:17.351Z,29.10
2019-02-16T02:09:17.326Z,31.40
2019-02-16T02:10:17.324Z,29.40
2019-02-16T02:11:17.301Z,30.90
2019-02-16T02:12:17.309Z,28.30
2019-02-16T02:13:17.287Z,29.00
2019-02-16T02:14:17.273Z,29.10
2019-02-16T02:15:17.267Z,31.10
2019-02-16T02:16:17.247Z,27.80
2019-02-16T02:17:17.254Z,29.10
2019-02-16T02:18:17.232Z,30.10
2019-02-16T02:19:17.217Z,26.10
2019-02-16T02:20:17.208Z,27.50
2019-02-16T02:21:17.197Z,23.50
2019-02-16T02:22:17.242Z,24.40
2019-02-16T02:23:17.173Z,26.60
2019-02-16T02:24:17.162Z,23.50
2019-02-16T02:25:17.163Z,22.40
2019-02-16T02:26:17.138Z,23.60
2019-02-16T02:27:17.151Z,22.60
2019-02-16T02:28:17.114Z,20.20
2019-02-16T02:29:17.105Z,21.50
2019-02-16T02:30:17.094Z,20.40
2019-02-16T02:31:17.112Z,21.50
2019-02-16T02:32:17.084Z,21.60
2019-02-16T02:33:17.073Z,21.10
2019-02-16T02:34:17.048Z,21.60
2019-02-16T02:35:17.043Z,20.00
2019-02-16T02:36:17.036Z,20.20
2019-02-16T02:37:17.041Z,20.00
2019-02-16T02:38:17.007Z,20.10
2019-02-16T02:39:16.999Z,20.70
2019-02-16T02:40:16.984Z,19.00
2019-02-16T02:41:16.972Z,19.20
2019-02-16T02:42:16.975Z,21.40
2019-02-16T02:43:16.956Z,20.70
2019-02-16T02:44:16.942Z,19.50
2019-02-16T02:45:16.928Z,21.20
2019-02-16T02:46:16.915Z,21.00
2019-02-16T02:47:16.919Z,20.30
2019-02-16T02:48:16.901Z,20.50
2019-02-16T02:49:16.880Z,20.30
2019-02-16T02:50:16.882Z,21.50
2019-02-16T02:51:16.862Z,19.30
2019-02-16T02:52:16.899Z,20.30
2019-02-16T02:53:16.835Z,19.30
2019-02-16T02:54:16.865Z,18.50
2019-02-16T02:55:16.820Z,19.00
2019-02-16T02:56:16.818Z,20.10
2019-02-16T02:57:16.793Z,18.50
2019-02-16T02:58:16.795Z,19.40
2019-02-16T02:59:16.769Z,21.50
2019-02-16T03:00:16.759Z,20.00
2019-02-16T03:01:16.749Z,20.80
2019-02-16T03:02:16.743Z,20.80
2019-02-16T03:03:16.745Z,21.40
2019-02-16T03:04:16.715Z,21.90
2019-02-16T03:05:16.705Z,20.90
2019-02-16T03:06:16.748Z,21.70
2019-02-16T03:07:16.695Z,22.00
2019-02-16T03:08:16.700Z,24.10
2019-02-16T03:09:16.659Z,23.00
2019-02-16T03:10:16.651Z,24.40
2019-02-16T03:11:16.640Z,22.20
2019-02-16T03:12:16.625Z,23.20
2019-02-16T03:13:16.627Z,25.00
2019-02-16T03:14:16.602Z,25.10
2019-02-16T03:15:16.589Z,25.40
2019-02-16T03:16:16.580Z,25.30
2019-02-16T03:17:16.570Z,26.30
2019-02-16T03:18:16.579Z,24.70
2019-02-16T03:19:16.557Z,25.20
2019-02-16T03:20:16.534Z,24.20
2019-02-16T03:21:16.528Z,25.10
2019-02-16T03:22:16.508Z,24.00
2019-02-16T03:23:16.527Z,27.60
2019-02-16T03:24:16.495Z,24.80
2019-02-16T03:25:16.476Z,24.80
2019-02-16T03:26:16.469Z,26.90
2019-02-16T03:27:16.455Z,26.90
2019-02-16T03:28:16.459Z,27.20
2019-02-16T03:29:16.436Z,24.50
2019-02-16T03:30:16.431Z,25.00
2019-02-16T03:31:16.419Z,23.90
2019-02-16T03:32:16.410Z,23.40
2019-02-16T03:33:16.420Z,23.30
2019-02-16T03:34:16.389Z,22.40
2019-02-16T03:35:16.367Z,22.60
2019-02-16T03:36:16.361Z,25.30
2019-02-16T03:37:16.349Z,25.40
2019-02-16T03:38:16.361Z,24.00
2019-02-16T03:39:16.322Z,21.60
2019-02-16T03:40:16.313Z,23.70
2019-02-16T03:41:16.303Z,22.90
2019-02-16T03:42:16.289Z,24.30
2019-02-16T03:43:16.314Z,27.10
2019-02-16T03:44:16.264Z,23.40
2019-02-16T03:45:16.258Z,22.90
2019-02-16T03:46:16.241Z,24.50
2019-02-16T03:47:16.233Z,27.10
2019-02-16T03:48:16.233Z,24.50
2019-02-16T03:49:16.225Z,24.30
2019-02-16T03:50:16.204Z,23.80
2019-02-16T03:51:16.193Z,24.70
2019-02-16T03:52:16.179Z,22.00
2019-02-16T03:53:16.173Z,23.80
2019-02-16T03:54:16.170Z,28.70
2019-02-16T03:55:16.146Z,23.00
2019-02-16T03:56:16.131Z,24.80
2019-02-16T03:57:16.126Z,23.30
2019-02-16T03:58:16.116Z,22.20
2019-02-16T03:59:16.118Z,23.10
2019-02-16T04:00:16.090Z,26.10
2019-02-16T04:01:16.081Z,25.50
2019-02-16T04:02:16.068Z,24.50
2019-02-16T04:03:16.052Z,25.70
2019-02-16T04:04:16.058Z,24.20
2019-02-16T04:05:16.042Z,26.90
2019-02-16T04:06:16.031Z,24.40
2019-02-16T04:07:16.008Z,27.60
2019-02-16T04:08:16.003Z,25.40
2019-02-16T04:09:16.026Z,24.70
2019-02-16T04:10:15.986Z,24.40
2019-02-16T04:11:15.977Z,25.10
2019-02-16T04:12:15.957Z,26.50
2019-02-16T04:13:15.947Z,23.40
2019-02-16T04:14:15.959Z,24.50
2019-02-16T04:15:15.937Z,24.00
2019-02-16T04:16:15.915Z,23.80
2019-02-16T04:17:15.900Z,25.00
2019-02-16T04:18:15.892Z,25.50
2019-02-16T04:19:15.882Z,21.50
2019-02-16T04:20:15.881Z,23.90
2019-02-16T04:21:15.855Z,24.00
2019-02-16T04:22:24.138Z,25.20
2019-02-16T04:23:16.835Z,24.70
2019-02-16T04:24:15.822Z,23.50
2019-02-16T04:25:15.830Z,23.60
2019-02-16T04:26:15.809Z,22.20
2019-02-16T04:27:15.790Z,23.20
2019-02-16T04:28:15.809Z,22.10
2019-02-16T04:29:15.770Z,22.00
2019-02-16T04:30:15.777Z,23.80
2019-02-16T04:31:15.748Z,24.50
2019-02-16T04:32:15.731Z,22.90
2019-02-16T04:33:15.780Z,21.20
2019-02-16T04:34:15.725Z,23.00
2019-02-16T04:35:15.716Z,23.50
2019-02-16T04:36:15.689Z,23.60
2019-02-16T04:37:15.674Z,23.40
2019-02-16T04:38:15.670Z,19.90
2019-02-16T04:39:15.659Z,22.40
2019-02-16T04:40:15.670Z,21.90
2019-02-16T04:41:15.632Z,22.00
2019-02-16T04:42:15.619Z,22.20
2019-02-16T04:43:15.621Z,22.40
2019-02-16T04:44:15.602Z,25.30
2019-02-16T04:45:15.613Z,23.10
2019-02-16T04:46:15.579Z,22.50
2019-02-16T04:47:15.565Z,25.30
2019-02-16T04:48:15.553Z,24.10
2019-02-16T04:49:15.555Z,23.90
2019-02-16T04:50:15.554Z,23.20
2019-02-16T04:51:15.527Z,21.70
2019-02-16T04:52:15.520Z,23.10
2019-02-16T04:53:15.557Z,24.00
2019-02-16T04:54:15.490Z,22.60
2019-02-16T04:55:15.512Z,24.70
2019-02-16T04:56:15.473Z,22.80
2019-02-16T04:57:15.459Z,21.00
2019-02-16T04:58:15.445Z,23.70
2019-02-16T04:59:15.435Z,21.80
2019-02-16T05:00:15.422Z,22.90
2019-02-16T05:01:15.437Z,22.50
2019-02-16T05:02:15.407Z,24.00
2019-02-16T05:03:15.407Z,22.70
2019-02-16T05:04:15.381Z,22.70
2019-02-16T05:05:15.370Z,23.80
2019-02-16T05:06:15.456Z,24.20
2019-02-16T05:07:15.345Z,21.80
2019-02-16T05:08:15.335Z,26.00
2019-02-16T05:09:15.326Z,22.00
2019-02-16T05:10:15.325Z,22.90
2019-02-16T05:11:15.321Z,22.30
2019-02-16T05:12:15.294Z,23.70
2019-02-16T05:13:15.280Z,23.40
2019-02-16T05:14:15.278Z,23.80
2019-02-16T05:15:15.267Z,23.10
2019-02-16T05:16:15.264Z,23.80
2019-02-16T05:17:15.233Z,21.40
2019-02-16T05:18:15.231Z,22.70
2019-02-16T05:19:15.213Z,22.90
2019-02-16T05:20:15.201Z,22.60
2019-02-16T05:21:15.212Z,22.90
2019-02-16T05:22:15.179Z,23.50
2019-02-16T05:23:15.167Z,22.70
2019-02-16T05:24:15.153Z,23.30
2019-02-16T05:25:15.157Z,24.10
2019-02-16T05:26:15.164Z,22.10
2019-02-16T05:27:15.128Z,22.10
2019-02-16T05:28:15.115Z,20.80
2019-02-16T05:29:15.104Z,22.10
2019-02-16T05:30:15.089Z,23.90
2019-02-16T05:31:15.097Z,21.40
2019-02-16T05:32:15.082Z,23.90
2019-02-16T05:33:15.055Z,22.40
2019-02-16T05:34:15.051Z,23.40
2019-02-16T05:35:15.040Z,23.00
2019-02-16T05:36:15.053Z,20.60
2019-02-16T05:37:15.023Z,22.00
2019-02-16T05:38:15.021Z,21.30
2019-02-16T05:39:14.990Z,21.30
2019-02-16T05:40:14.980Z,22.60
2019-02-16T05:41:14.987Z,21.10
2019-02-16T05:42:14.985Z,23.70
2019-02-16T05:43:14.952Z,22.50
2019-02-16T05:44:14.938Z,23.50
2019-02-16T05:45:14.928Z,23.60
2019-02-16T05:46:14.913Z,22.70
2019-02-16T05:47:14.931Z,24.40
2019-02-16T05:48:14.895Z,21.20
2019-02-16T05:49:14.893Z,23.60
2019-02-16T05:50:14.867Z,24.60
2019-02-16T05:51:14.859Z,24.30
2019-02-16T05:52:14.879Z,22.30
2019-02-16T05:53:14.834Z,23.20
2019-02-16T05:54:14.833Z,22.90
2019-02-16T05:55:14.815Z,29.70
2019-02-16T05:56:14.805Z,24.70
2019-02-16T05:57:14.960Z,21.60
2019-02-16T05:58:14.785Z,24.00
2019-02-16T05:59:14.769Z,24.20
2019-02-16T06:00:14.770Z,22.30
2019-02-16T06:01:14.751Z,23.60
2019-02-16T06:02:14.773Z,24.90
2019-02-16T06:03:14.728Z,24.00
2019-02-16T06:04:14.727Z,27.50
2019-02-16T06:05:14.703Z,27.70
2019-02-16T06:06:14.699Z,34.70
2019-02-16T06:07:14.715Z,35.30
2019-02-16T06:08:14.679Z,38.50
2019-02-16T06:09:14.658Z,40.80
2019-02-16T06:10:14.657Z,48.10
2019-02-16T06:11:14.641Z,56.80
2019-02-16T06:12:14.648Z,74.60
2019-02-16T06:13:14.613Z,63.70
2019-02-16T06:14:14.601Z,58.10
2019-02-16T06:15:14.595Z,58.70
2019-02-16T06:16:14.581Z,65.20
2019-02-16T06:17:14.617Z,54.60
2019-02-16T06:18:14.580Z,56.10
2019-02-16T06:19:14.550Z,49.30
2019-02-16T06:20:14.560Z,50.00
2019-02-16T06:21:14.531Z,53.80
2019-02-16T06:22:14.515Z,46.50
2019-02-16T06:23:14.522Z,48.30
2019-02-16T06:24:14.490Z,42.30
2019-02-16T06:25:14.486Z,42.30
2019-02-16T06:26:14.472Z,42.00
2019-02-16T06:27:14.468Z,40.30
2019-02-16T06:28:14.466Z,39.10
2019-02-16T06:29:14.446Z,39.50
2019-02-16T06:30:14.432Z,38.70
2019-02-16T06:31:14.421Z,38.90
2019-02-16T06:32:14.401Z,36.40
2019-02-16T06:33:14.412Z,40.40
2019-02-16T06:34:14.384Z,36.70
2019-02-16T06:35:14.382Z,33.70
2019-02-16T06:36:14.359Z,38.50
2019-02-16T06:37:14.345Z,39.50
2019-02-16T06:38:14.360Z,36.60
2019-02-16T06:39:14.335Z,37.10
2019-02-16T06:40:14.336Z,36.10
2019-02-16T06:41:14.316Z,42.20
2019-02-16T06:42:14.295Z,39.00
2019-02-16T06:43:14.302Z,42.20
2019-02-16T06:44:14.270Z,49.20
2019-02-16T06:45:14.264Z,47.70
2019-02-16T06:46:14.255Z,43.20
2019-02-16T06:47:14.248Z,38.40
2019-02-16T06:48:14.239Z,36.40
2019-02-16T06:49:14.219Z,35.90
2019-02-16T06:50:14.204Z,34.10
2019-02-16T06:51:14.990Z,31.30
2019-02-16T06:52:14.189Z,29.90
2019-02-16T06:53:14.204Z,28.50
2019-02-16T06:54:14.159Z,30.40
2019-02-16T06:55:14.145Z,32.80
2019-02-16T06:56:14.148Z,30.50
2019-02-16T06:57:14.131Z,27.80
2019-02-16T06:58:14.131Z,25.40
2019-02-16T06:59:14.128Z,26.90
2019-02-16T07:00:14.098Z,24.80
2019-02-16T07:01:14.082Z,26.40
2019-02-16T07:02:14.076Z,23.90
2019-02-16T07:03:14.063Z,25.30
2019-02-16T07:04:14.064Z,25.70
2019-02-16T07:05:14.038Z,25.40
2019-02-16T07:06:14.029Z,25.10
2019-02-16T07:07:14.018Z,25.40
2019-02-16T07:08:14.011Z,24.70
2019-02-16T07:09:14.016Z,27.30
2019-02-16T07:10:13.994Z,24.10
2019-02-16T07:11:13.976Z,29.30
2019-02-16T07:12:13.962Z,26.60
2019-02-16T07:13:13.948Z,24.80
2019-02-16T07:14:14.030Z,23.10
2019-02-16T07:15:13.942Z,22.60
2019-02-16T07:16:13.925Z,27.30
2019-02-16T07:17:13.905Z,24.80
2019-02-16T07:18:13.896Z,27.90
2019-02-16T07:19:13.902Z,26.60
2019-02-16T07:20:13.876Z,25.30
2019-02-16T07:21:13.869Z,25.40
2019-02-16T07:22:13.848Z,23.50
2019-02-16T07:23:22.280Z,27.30
2019-02-16T07:24:14.848Z,27.60
2019-02-16T07:25:13.821Z,26.80
2019-02-16T07:26:13.818Z,21.80
2019-02-16T07:27:13.794Z,25.40
2019-02-16T07:28:13.802Z,24.40
2019-02-16T07:29:13.789Z,24.90
2019-02-16T07:30:13.763Z,23.30
2019-02-16T07:31:15.802Z,23.70
2019-02-16T07:32:13.744Z,24.50
2019-02-16T07:33:13.732Z,24.60
2019-02-16T07:34:13.759Z,24.10
2019-02-16T07:35:13.745Z,21.20
2019-02-16T07:36:13.692Z,21.10
2019-02-16T07:37:13.684Z,20.80
2019-02-16T07:38:13.742Z,23.50
2019-02-16T07:39:14.730Z,21.80
2019-02-16T07:40:13.674Z,24.00
2019-02-16T07:41:13.643Z,23.40
2019-02-16T07:42:13.630Z,23.90
2019-02-16T07:43:13.620Z,22.10
2019-02-16T07:44:13.610Z,27.40
2019-02-16T07:45:13.628Z,26.20
2019-02-16T07:46:13.586Z,28.40
2019-02-16T07:47:13.572Z,24.80
2019-02-16T07:48:13.564Z,24.80
2019-02-16T07:49:13.554Z,22.50
2019-02-16T07:50:13.557Z,25.80
2019-02-16T07:51:13.566Z,25.60
2019-02-16T07:52:13.522Z,23.60
2019-02-16T07:53:13.506Z,21.90
2019-02-16T07:54:13.505Z,16.00
2019-02-16T07:55:13.506Z,16.90
2019-02-16T07:56:13.479Z,16.10
2019-02-16T07:57:13.466Z,17.00
2019-02-16T07:58:13.470Z,15.70
2019-02-16T07:59:13.445Z,16.70
2019-02-16T08:00:13.449Z,16.30
2019-02-16T08:01:13.419Z,17.10
2019-02-16T08:02:13.418Z,14.10
2019-02-16T08:03:13.407Z,16.00
2019-02-16T08:04:13.395Z,17.80
2019-02-16T08:05:13.398Z,15.30
2019-02-16T08:06:13.369Z,15.80
2019-02-16T08:07:13.356Z,15.70
2019-02-16T08:08:13.338Z,15.70
2019-02-16T08:09:14.192Z,14.30
2019-02-16T08:10:13.332Z,16.30
2019-02-16T08:11:13.474Z,15.20
2019-02-16T08:12:13.296Z,17.40
2019-02-16T08:13:13.284Z,16.00
2019-02-16T08:14:13.273Z,16.80
2019-02-16T08:15:13.299Z,14.50
2019-02-16T08:16:13.251Z,15.60
2019-02-16T08:17:14.197Z,15.20
2019-02-16T08:18:13.232Z,14.20
2019-02-16T08:19:13.220Z,16.00
2019-02-16T08:20:13.241Z,16.50
2019-02-16T08:21:13.197Z,17.00
2019-02-16T08:22:13.185Z,14.20
2019-02-16T08:23:13.181Z,14.50
2019-02-16T08:24:13.159Z,15.50
2019-02-16T08:25:13.156Z,16.00
2019-02-16T08:26:13.178Z,16.40
2019-02-16T08:27:13.128Z,13.60
2019-02-16T08:28:13.119Z,14.30
2019-02-16T08:29:13.202Z,14.80
2019-02-16T08:30:13.099Z,12.30
2019-02-16T08:31:13.095Z,12.90
2019-02-16T08:32:13.073Z,15.80
2019-02-16T08:33:13.062Z,12.50
2019-02-16T08:34:13.092Z,12.10
2019-02-16T08:35:13.040Z,11.70
2019-02-16T08:36:13.046Z,12.30
2019-02-16T08:37:13.042Z,10.60
2019-02-16T08:38:13.005Z,12.60
2019-02-16T08:39:12.994Z,11.30
2019-02-16T08:40:12.988Z,12.40
2019-02-16T08:41:13.011Z,11.20
2019-02-16T08:42:12.964Z,12.20
2019-02-16T08:43:12.949Z,9.70
2019-02-16T08:44:12.937Z,11.30
2019-02-16T08:45:12.931Z,14.40
2019-02-16T08:46:12.948Z,12.10
2019-02-16T08:47:12.905Z,10.80
2019-02-16T08:48:12.933Z,10.90
2019-02-16T08:49:12.885Z,10.00
2019-02-16T08:50:12.872Z,9.40
2019-02-16T08:51:12.890Z,9.90
2019-02-16T08:52:12.853Z,9.90
2019-02-16T08:53:12.844Z,10.70
2019-02-16T08:54:12.843Z,9.80
2019-02-16T08:55:12.811Z,9.00
2019-02-16T08:56:12.845Z,10.30
2019-02-16T08:57:12.792Z,9.10
2019-02-16T08:58:12.778Z,10.00
2019-02-16T08:59:12.774Z,10.60
2019-02-16T09:00:12.779Z,10.80
2019-02-16T09:01:12.782Z,10.10
2019-02-16T09:02:12.843Z,9.80
2019-02-16T09:03:12.729Z,9.80
2019-02-16T09:04:12.715Z,9.10
2019-02-16T09:05:12.705Z,10.90
2019-02-16T09:06:12.691Z,9.90
2019-02-16T09:07:12.735Z,8.50
2019-02-16T09:08:12.670Z,10.80
2019-02-16T09:09:12.660Z,9.10
2019-02-16T09:10:12.654Z,8.00
2019-02-16T09:11:12.647Z,9.00
2019-02-16T09:12:12.652Z,9.40
2019-02-16T09:13:12.617Z,9.80
2019-02-16T09:14:12.603Z,8.60
2019-02-16T09:15:12.603Z,7.80
2019-02-16T09:16:12.586Z,10.80
2019-02-16T09:17:13.413Z,9.10
2019-02-16T09:18:12.556Z,8.00
2019-02-16T09:19:12.551Z,9.80
2019-02-16T09:20:12.532Z,8.80
2019-02-16T09:21:14.698Z,9.10
2019-02-16T09:22:13.612Z,9.50
2019-02-16T09:23:12.528Z,8.10
2019-02-16T09:24:12.495Z,11.80
2019-02-16T09:25:12.479Z,8.30
2019-02-16T09:26:12.471Z,7.80
2019-02-16T09:27:12.471Z,7.90
2019-02-16T09:28:12.462Z,7.00
2019-02-16T09:29:12.435Z,10.00
2019-02-16T09:30:12.425Z,8.60
2019-02-16T09:31:12.407Z,6.60
2019-02-16T09:32:13.227Z,10.10
2019-02-16T09:33:12.390Z,7.70
2019-02-16T09:34:12.387Z,9.70
2019-02-16T09:35:12.368Z,7.30
2019-02-16T09:36:12.358Z,8.50
2019-02-16T09:37:12.371Z,7.30
2019-02-16T09:38:12.331Z,8.80
2019-02-16T09:39:12.328Z,8.20
2019-02-16T09:40:12.306Z,9.20
2019-02-16T09:41:12.309Z,8.20
2019-02-16T09:42:12.307Z,7.80
2019-02-16T09:43:12.279Z,9.30
2019-02-16T09:44:12.267Z,7.60
2019-02-16T09:45:12.256Z,8.70
2019-02-16T09:46:12.244Z,7.30
2019-02-16T09:47:12.248Z,7.10
2019-02-16T09:48:12.225Z,7.30
2019-02-16T09:49:12.215Z,7.30
2019-02-16T09:50:12.245Z,7.30
2019-02-16T09:51:12.191Z,6.90
2019-02-16T09:52:12.208Z,8.60
2019-02-16T09:53:12.164Z,6.30
2019-02-16T09:54:12.153Z,6.90
2019-02-16T09:55:12.394Z,7.00
2019-02-16T09:56:12.135Z,6.10
2019-02-16T09:57:12.334Z,8.30
2019-02-16T09:58:12.137Z,7.00
2019-02-16T09:59:12.215Z,7.90
2019-02-16T10:00:13.939Z,6.80
2019-02-16T10:01:12.141Z,6.80
2019-02-16T10:02:12.062Z,6.80
2019-02-16T10:03:12.085Z,6.40
2019-02-16T10:04:12.035Z,6.90
2019-02-16T10:05:12.023Z,6.60
2019-02-16T10:06:12.023Z,5.90
2019-02-16T10:07:12.002Z,6.10
2019-02-16T10:08:12.010Z,6.60
2019-02-16T10:09:11.981Z,6.50
2019-02-16T10:10:11.970Z,6.50
2019-02-16T10:11:11.959Z,6.00
2019-02-16T10:12:11.951Z,6.70
2019-02-16T10:13:12.010Z,7.20
2019-02-16T10:14:12.098Z,6.80
2019-02-16T10:15:11.924Z,5.90
2019-02-16T10:16:11.904Z,7.50
2019-02-16T10:17:11.887Z,8.70
2019-02-16T10:18:11.916Z,5.90
2019-02-16T10:19:11.875Z,8.10
2019-02-16T10:20:11.903Z,7.20
2019-02-16T10:21:11.841Z,6.40
2019-02-16T10:22:11.836Z,6.00
2019-02-16T10:23:11.846Z,6.90
2019-02-16T10:24:17.635Z,7.50
2019-02-16T10:25:12.835Z,9.60
2019-02-16T10:26:11.872Z,5.60
2019-02-16T10:27:11.786Z,9.30
2019-02-16T10:28:11.795Z,7.40
2019-02-16T10:29:11.761Z,10.20
2019-02-16T10:30:11.744Z,7.00
2019-02-16T10:31:11.735Z,6.30
2019-02-16T10:32:11.721Z,5.30
2019-02-16T10:33:11.725Z,5.40
2019-02-16T10:34:11.703Z,7.60
2019-02-16T10:35:11.687Z,6.60
2019-02-16T10:36:11.694Z,6.90
2019-02-16T10:37:11.666Z,6.40
2019-02-16T10:38:11.685Z,6.30
2019-02-16T10:39:11.647Z,6.40
2019-02-16T10:40:11.641Z,7.20
2019-02-16T10:41:11.636Z,6.30
2019-02-16T10:42:11.612Z,6.70
2019-02-16T10:43:11.624Z,6.80
2019-02-16T10:44:11.598Z,5.50
2019-02-16T10:45:11.574Z,10.60
2019-02-16T10:46:11.584Z,4.80
2019-02-16T10:47:11.545Z,5.20
2019-02-16T10:48:11.549Z,5.40
2019-02-16T10:49:11.555Z,5.10
2019-02-16T10:50:11.530Z,6.90
2019-02-16T10:51:11.515Z,7.20
2019-02-16T10:52:11.504Z,7.20
2019-02-16T10:53:11.490Z,6.10
2019-02-16T10:54:11.493Z,6.40
2019-02-16T10:55:11.465Z,5.50
2019-02-16T10:56:11.471Z,5.10
2019-02-16T10:57:11.445Z,5.10
2019-02-16T10:58:11.431Z,5.00
2019-02-16T10:59:11.416Z,5.40
2019-02-16T11:00:11.406Z,7.80
2019-02-16T11:01:11.409Z,5.90
2019-02-16T11:02:11.389Z,5.80
2019-02-16T11:03:11.378Z,4.70
2019-02-16T11:04:11.379Z,4.40
2019-02-16T11:05:11.404Z,5.40
2019-02-16T11:06:11.340Z,6.50
2019-02-16T11:07:11.331Z,5.10
2019-02-16T11:08:11.315Z,5.80
2019-02-16T11:09:11.327Z,5.40
2019-02-16T11:10:11.294Z,4.40
2019-02-16T11:11:11.284Z,5.60
2019-02-16T11:12:11.270Z,7.40
2019-02-16T11:13:11.260Z,6.40
2019-02-16T11:14:11.351Z,4.90
2019-02-16T11:15:11.237Z,5.20
2019-02-16T11:16:11.232Z,6.80
2019-02-16T11:17:11.224Z,5.40
2019-02-16T11:18:11.203Z,4.70
2019-02-16T11:19:11.210Z,4.50
2019-02-16T11:20:11.186Z,5.30
2019-02-16T11:21:11.174Z,6.50
2019-02-16T11:22:11.162Z,7.50
2019-02-16T11:23:11.165Z,5.30
2019-02-16T11:24:11.794Z,5.30
2019-02-16T11:25:11.126Z,5.70
2019-02-16T11:26:11.196Z,6.00
2019-02-16T11:27:11.119Z,4.70
2019-02-16T11:28:11.196Z,5.00
2019-02-16T11:29:11.325Z,5.80
2019-02-16T11:30:11.079Z,4.60
2019-02-16T11:31:11.060Z,4.60
2019-02-16T11:32:11.064Z,4.70
2019-02-16T11:33:11.037Z,5.80
2019-02-16T11:34:11.067Z,5.40
2019-02-16T11:35:11.044Z,5.20
2019-02-16T11:36:11.008Z,7.00
2019-02-16T11:37:10.999Z,4.80
2019-02-16T11:38:10.990Z,4.40
2019-02-16T11:39:10.972Z,5.90
2019-02-16T11:40:10.980Z,4.60
2019-02-16T11:41:18.690Z,4.20
2019-02-16T11:42:11.941Z,5.90
2019-02-16T11:43:10.929Z,4.10
2019-02-16T11:44:10.938Z,4.40
2019-02-16T11:45:10.959Z,3.80
2019-02-16T11:46:10.908Z,6.00
2019-02-16T11:47:10.893Z,4.30
2019-02-16T11:48:10.883Z,5.80
2019-02-16T11:49:10.870Z,4.20
2019-02-16T11:50:10.882Z,4.20
2019-02-16T11:51:10.847Z,6.40
2019-02-16T11:52:10.852Z,5.40
2019-02-16T11:53:10.869Z,4.80
2019-02-16T11:54:10.823Z,4.00
2019-02-16T11:55:10.830Z,4.80
2019-02-16T11:56:10.801Z,5.00
2019-02-16T11:57:10.784Z,5.30
2019-02-16T11:58:10.782Z,5.80
2019-02-16T11:59:10.761Z,4.20
2019-02-16T12:00:10.771Z,4.60
2019-02-16T12:01:10.738Z,4.90
2019-02-16T12:02:10.734Z,4.50
2019-02-16T12:03:10.744Z,3.90
2019-02-16T12:04:10.722Z,4.80
2019-02-16T12:05:10.751Z,3.70
2019-02-16T12:06:10.696Z,5.40
2019-02-16T12:07:10.695Z,4.60
2019-02-16T12:08:10.671Z,4.80
2019-02-16T12:09:10.663Z,5.20
2019-02-16T12:10:10.672Z,6.20
2019-02-16T12:11:10.635Z,6.40
2019-02-16T12:12:10.626Z,5.60
2019-02-16T12:13:10.634Z,6.50
2019-02-16T12:14:10.609Z,5.90
2019-02-16T12:15:10.639Z,5.10
2019-02-16T12:16:10.595Z,5.20
2019-02-16T12:17:10.605Z,4.70
2019-02-16T12:18:10.562Z,6.00
2019-02-16T12:19:10.553Z,5.80
2019-02-16T12:20:10.595Z,5.00
2019-02-16T12:21:11.266Z,7.00
2019-02-16T12:22:10.532Z,3.90
2019-02-16T12:23:10.511Z,6.00
2019-02-16T12:24:10.505Z,4.50
2019-02-16T12:25:10.488Z,4.20
2019-02-16T12:26:10.503Z,5.60
2019-02-16T12:27:10.518Z,3.50
2019-02-16T12:28:10.468Z,4.90
2019-02-16T12:29:10.528Z,5.50
2019-02-16T12:30:10.459Z,4.40
2019-02-16T12:31:10.426Z,4.90
2019-02-16T12:32:10.436Z,3.50
2019-02-16T12:33:10.411Z,3.40
2019-02-16T12:34:10.407Z,4.40
2019-02-16T12:35:10.903Z,3.90
2019-02-16T12:36:10.364Z,5.50
2019-02-16T12:37:10.391Z,4.90
2019-02-16T12:38:10.344Z,4.60
2019-02-16T12:39:10.344Z,4.10
2019-02-16T12:40:10.371Z,4.90
2019-02-16T12:41:10.306Z,4.30
2019-02-16T12:42:10.325Z,3.10
2019-02-16T12:44:11.497Z,3.40
2019-02-16T12:45:10.311Z,4.50
2019-02-16T12:46:10.287Z,4.00
2019-02-16T12:47:10.304Z,4.90
2019-02-16T12:48:10.247Z,4.60
2019-02-16T12:49:10.248Z,4.00
2019-02-16T12:50:10.228Z,5.00
2019-02-16T12:51:10.240Z,4.90
2019-02-16T12:52:10.252Z,6.00
2019-02-16T12:53:10.191Z,4.50
2019-02-16T12:54:10.177Z,4.00
2019-02-16T12:55:14.640Z,4.00
2019-02-16T12:56:10.179Z,3.00
2019-02-16T12:57:10.131Z,4.70
2019-02-16T12:58:10.138Z,5.90
2019-02-16T12:59:10.111Z,6.00
2019-02-16T13:00:10.109Z,4.50
2019-02-16T13:01:10.102Z,4.40